Terminal Aerodrome Forecast
Issued by NWS Sioux Falls, SD

Home | Current Version | Previous Version | Text Only | Print | Product List | Glossary Off
Versions: 1 2 3 4 5 6 7 8 9 10 11 12 13 14 15

000
FTUS43 KFSD 291733
TAFHON
TAF
KHON 291733Z 2918/3018 17006KT P6SM SCT250
     FM292000 17006KT P6SM SCT050
     FM300000 08006KT P6SM VCTS BKN060CB
     FM300400 06011KT P6SM SCT070
     FM301500 09010KT P6SM SCT045=

USA.gov is the U.S. government's official web portal to all federal, state and local government web resources and services.